sensor_id;sensor_type;location;lat;lon;timestamp;temperature;humidity
27506;DHT22;14939;43.596;1.320;2023-12-20T00:00:54;7.30;99.90
27506;DHT22;14939;43.596;1.320;2023-12-20T00:03:20;7.30;99.90
27506;DHT22;14939;43.596;1.320;2023-12-20T00:05:46;7.30;99.90
27506;DHT22;14939;43.596;1.320;2023-12-20T00:08:12;7.30;99.90
27506;DHT22;14939;43.596;1.320;2023-12-20T00:10:38;7.30;99.90
27506;DHT22;14939;43.596;1.320;2023-12-20T00:13:03;7.30;99.90
27506;DHT22;14939;43.596;1.320;2023-12-20T00:15:29;7.40;99.90
27506;DHT22;14939;43.596;1.320;2023-12-20T00:17:54;7.40;99.90
27506;DHT22;14939;43.596;1.320;2023-12-20T00:20:20;7.40;99.90
27506;DHT22;14939;43.596;1.320;2023-12-20T00:22:46;7.50;99.90
27506;DHT22;14939;43.596;1.320;2023-12-20T00:25:11;7.40;99.90
27506;DHT22;14939;43.596;1.320;2023-12-20T00:27:37;7.40;99.90
27506;DHT22;14939;43.596;1.320;2023-12-20T00:30:03;7.40;99.90
27506;DHT22;14939;43.596;1.320;2023-12-20T00:32:29;7.50;99.90
27506;DHT22;14939;43.596;1.320;2023-12-20T00:34:54;7.50;99.90
27506;DHT22;14939;43.596;1.320;2023-12-20T00:37:20;7.50;99.90
27506;DHT22;14939;43.596;1.320;2023-12-20T00:39:45;7.50;99.90
27506;DHT22;14939;43.596;1.320;2023-12-20T00:42:11;7.60;99.90
27506;DHT22;14939;43.596;1.320;2023-12-20T00:44:37;7.60;99.90
27506;DHT22;14939;43.596;1.320;2023-12-20T00:47:03;7.50;99.90
27506;DHT22;14939;43.596;1.320;2023-12-20T00:49:28;7.60;99.90
27506;DHT22;14939;43.596;1.320;2023-12-20T00:51:54;7.60;99.90
27506;DHT22;14939;43.596;1.320;2023-12-20T00:54:20;7.60;99.90
27506;DHT22;14939;43.596;1.320;2023-12-20T00:56:45;7.60;99.90
27506;DHT22;14939;43.596;1.320;2023-12-20T00:59:11;7.60;99.90
27506;DHT22;14939;43.596;1.320;2023-12-20T01:01:36;7.60;99.90
27506;DHT22;14939;43.596;1.320;2023-12-20T01:04:02;7.60;99.90
27506;DHT22;14939;43.596;1.320;2023-12-20T01:06:28;7.60;99.90
27506;DHT22;14939;43.596;1.320;2023-12-20T01:08:54;7.60;99.90
27506;DHT22;14939;43.596;1.320;2023-12-20T01:11:19;7.60;99.90
27506;DHT22;14939;43.596;1.320;2023-12-20T01:13:45;7.60;99.90
27506;DHT22;14939;43.596;1.320;2023-12-20T01:16:12;7.60;99.90
27506;DHT22;14939;43.596;1.320;2023-12-20T01:18:38;7.60;99.90
27506;DHT22;14939;43.596;1.320;2023-12-20T01:21:04;7.60;99.90
27506;DHT22;14939;43.596;1.320;2023-12-20T01:23:30;7.60;99.90
27506;DHT22;14939;43.596;1.320;2023-12-20T01:25:56;7.60;99.90
27506;DHT22;14939;43.596;1.320;2023-12-20T01:28:22;7.60;99.90
27506;DHT22;14939;43.596;1.320;2023-12-20T01:30:47;7.70;99.90
27506;DHT22;14939;43.596;1.320;2023-12-20T01:33:13;7.70;99.90
27506;DHT22;14939;43.596;1.320;2023-12-20T01:35:39;7.80;99.90
27506;DHT22;14939;43.596;1.320;2023-12-20T01:38:04;7.70;99.90
27506;DHT22;14939;43.596;1.320;2023-12-20T01:40:30;7.80;99.90
27506;DHT22;14939;43.596;1.320;2023-12-20T01:43:00;7.80;99.90
27506;DHT22;14939;43.596;1.320;2023-12-20T01:45:25;7.80;99.90
27506;DHT22;14939;43.596;1.320;2023-12-20T01:47:52;7.80;99.90
27506;DHT22;14939;43.596;1.320;2023-12-20T01:50:17;7.90;99.90
27506;DHT22;14939;43.596;1.320;2023-12-20T01:52:44;7.90;99.90
27506;DHT22;14939;43.596;1.320;2023-12-20T01:55:10;7.90;99.90
27506;DHT22;14939;43.596;1.320;2023-12-20T01:57:42;8.00;99.90
27506;DHT22;14939;43.596;1.320;2023-12-20T02:00:09;8.00;99.90
27506;DHT22;14939;43.596;1.320;2023-12-20T02:02:38;8.00;99.90
27506;DHT22;14939;43.596;1.320;2023-12-20T02:05:05;8.00;99.90
27506;DHT22;14939;43.596;1.320;2023-12-20T02:07:31;8.10;99.90
27506;DHT22;14939;43.596;1.320;2023-12-20T02:09:57;8.10;99.90
27506;DHT22;14939;43.596;1.320;2023-12-20T02:12:23;8.00;99.90
27506;DHT22;14939;43.596;1.320;2023-12-20T02:14:49;8.10;99.90
27506;DHT22;14939;43.596;1.320;2023-12-20T02:17:15;8.10;99.90
27506;DHT22;14939;43.596;1.320;2023-12-20T02:19:41;8.10;99.90
27506;DHT22;14939;43.596;1.320;2023-12-20T02:22:11;8.10;99.90
27506;DHT22;14939;43.596;1.320;2023-12-20T02:24:36;8.10;99.90
27506;DHT22;14939;43.596;1.320;2023-12-20T02:27:03;8.10;99.90
27506;DHT22;14939;43.596;1.320;2023-12-20T02:29:29;8.10;99.90
27506;DHT22;14939;43.596;1.320;2023-12-20T02:31:56;8.20;99.90
27506;DHT22;14939;43.596;1.320;2023-12-20T02:34:21;8.20;99.90
27506;DHT22;14939;43.596;1.320;2023-12-20T02:36:47;8.20;99.90
27506;DHT22;14939;43.596;1.320;2023-12-20T02:39:13;8.30;99.90
27506;DHT22;14939;43.596;1.320;2023-12-20T02:41:38;8.30;99.90
27506;DHT22;14939;43.596;1.320;2023-12-20T02:44:04;8.40;99.90
27506;DHT22;14939;43.596;1.320;2023-12-20T02:46:29;8.40;99.90
27506;DHT22;14939;43.596;1.320;2023-12-20T02:48:55;8.40;99.90
27506;DHT22;14939;43.596;1.320;2023-12-20T02:51:21;8.40;99.90
27506;DHT22;14939;43.596;1.320;2023-12-20T02:53:46;8.50;99.90
27506;DHT22;14939;43.596;1.320;2023-12-20T02:56:12;8.40;99.90
27506;DHT22;14939;43.596;1.320;2023-12-20T02:58:39;8.40;99.90
27506;DHT22;14939;43.596;1.320;2023-12-20T03:01:04;8.40;99.90
27506;DHT22;14939;43.596;1.320;2023-12-20T03:03:30;8.40;99.90
27506;DHT22;14939;43.596;1.320;2023-12-20T03:05:55;8.40;99.90
27506;DHT22;14939;43.596;1.320;2023-12-20T03:08:21;8.40;99.90
27506;DHT22;14939;43.596;1.320;2023-12-20T03:10:47;8.40;99.90
27506;DHT22;14939;43.596;1.320;2023-12-20T03:13:12;8.40;99.90
27506;DHT22;14939;43.596;1.320;2023-12-20T03:15:38;8.30;99.90
27506;DHT22;14939;43.596;1.320;2023-12-20T03:18:03;8.20;99.90
27506;DHT22;14939;43.596;1.320;2023-12-20T03:20:29;8.20;99.90
27506;DHT22;14939;43.596;1.320;2023-12-20T03:22:58;8.20;99.90
27506;DHT22;14939;43.596;1.320;2023-12-20T03:25:24;8.20;99.90
27506;DHT22;14939;43.596;1.320;2023-12-20T03:27:49;8.10;99.90
27506;DHT22;14939;43.596;1.320;2023-12-20T03:30:15;8.10;99.90
27506;DHT22;14939;43.596;1.320;2023-12-20T03:32:41;8.00;99.90
27506;DHT22;14939;43.596;1.320;2023-12-20T03:35:06;8.00;99.90
27506;DHT22;14939;43.596;1.320;2023-12-20T03:37:32;7.90;99.90
27506;DHT22;14939;43.596;1.320;2023-12-20T03:39:57;8.00;99.90
27506;DHT22;14939;43.596;1.320;2023-12-20T03:42:23;8.00;99.90
27506;DHT22;14939;43.596;1.320;2023-12-20T03:44:49;8.00;99.90
27506;DHT22;14939;43.596;1.320;2023-12-20T03:47:14;7.90;99.90
27506;DHT22;14939;43.596;1.320;2023-12-20T03:49:40;7.90;99.90
27506;DHT22;14939;43.596;1.320;2023-12-20T03:52:05;7.90;99.90
27506;DHT22;14939;43.596;1.320;2023-12-20T03:54:31;7.90;99.90
27506;DHT22;14939;43.596;1.320;2023-12-20T03:56:57;7.90;99.90
27506;DHT22;14939;43.596;1.320;2023-12-20T03:59:22;7.80;99.90
27506;DHT22;14939;43.596;1.320;2023-12-20T04:01:48;7.80;99.90
27506;DHT22;14939;43.596;1.320;2023-12-20T04:04:13;7.80;99.90
27506;DHT22;14939;43.596;1.320;2023-12-20T04:06:39;7.80;99.90
27506;DHT22;14939;43.596;1.320;2023-12-20T04:09:05;7.70;99.90
27506;DHT22;14939;43.596;1.320;2023-12-20T04:11:31;7.70;99.90
27506;DHT22;14939;43.596;1.320;2023-12-20T04:13:56;7.70;99.90
27506;DHT22;14939;43.596;1.320;2023-12-20T04:16:22;7.70;99.90
27506;DHT22;14939;43.596;1.320;2023-12-20T04:18:48;7.70;99.90
27506;DHT22;14939;43.596;1.320;2023-12-20T04:21:13;7.70;99.90
27506;DHT22;14939;43.596;1.320;2023-12-20T04:23:39;7.70;99.90
27506;DHT22;14939;43.596;1.320;2023-12-20T04:26:04;7.70;99.90
27506;DHT22;14939;43.596;1.320;2023-12-20T04:28:30;7.70;99.90
27506;DHT22;14939;43.596;1.320;2023-12-20T04:30:56;7.80;99.90
27506;DHT22;14939;43.596;1.320;2023-12-20T04:33:22;7.80;99.90
27506;DHT22;14939;43.596;1.320;2023-12-20T04:35:48;7.80;99.90
27506;DHT22;14939;43.596;1.320;2023-12-20T04:38:14;7.80;99.90
27506;DHT22;14939;43.596;1.320;2023-12-20T04:40:39;7.80;99.90
27506;DHT22;14939;43.596;1.320;2023-12-20T04:43:07;7.80;99.90
27506;DHT22;14939;43.596;1.320;2023-12-20T04:45:33;7.90;99.90
27506;DHT22;14939;43.596;1.320;2023-12-20T04:47:58;7.90;99.90
27506;DHT22;14939;43.596;1.320;2023-12-20T04:50:24;7.90;99.90
27506;DHT22;14939;43.596;1.320;2023-12-20T04:52:50;7.90;99.90
27506;DHT22;14939;43.596;1.320;2023-12-20T04:55:16;7.90;99.90
27506;DHT22;14939;43.596;1.320;2023-12-20T04:57:41;7.90;99.90
27506;DHT22;14939;43.596;1.320;2023-12-20T05:00:08;8.00;99.90
27506;DHT22;14939;43.596;1.320;2023-12-20T05:02:35;8.00;99.90
27506;DHT22;14939;43.596;1.320;2023-12-20T05:05:01;8.00;99.90
27506;DHT22;14939;43.596;1.320;2023-12-20T05:07:26;8.00;99.90
27506;DHT22;14939;43.596;1.320;2023-12-20T05:09:52;8.10;99.90
27506;DHT22;14939;43.596;1.320;2023-12-20T05:12:18;8.10;99.90
27506;DHT22;14939;43.596;1.320;2023-12-20T05:14:44;8.10;99.90
27506;DHT22;14939;43.596;1.320;2023-12-20T05:17:10;8.10;99.90
27506;DHT22;14939;43.596;1.320;2023-12-20T05:19:35;8.20;99.90
27506;DHT22;14939;43.596;1.320;2023-12-20T05:22:01;8.50;99.90
27506;DHT22;14939;43.596;1.320;2023-12-20T05:24:27;8.50;99.90
27506;DHT22;14939;43.596;1.320;2023-12-20T05:26:53;8.60;99.90
27506;DHT22;14939;43.596;1.320;2023-12-20T05:29:19;8.70;99.90
27506;DHT22;14939;43.596;1.320;2023-12-20T05:31:44;8.80;99.90
27506;DHT22;14939;43.596;1.320;2023-12-20T05:34:10;8.90;99.90
27506;DHT22;14939;43.596;1.320;2023-12-20T05:36:36;8.90;99.90
27506;DHT22;14939;43.596;1.320;2023-12-20T05:39:02;8.90;99.90
27506;DHT22;14939;43.596;1.320;2023-12-20T05:41:30;8.90;99.90
27506;DHT22;14939;43.596;1.320;2023-12-20T05:43:55;8.90;99.90
27506;DHT22;14939;43.596;1.320;2023-12-20T05:46:23;9.00;99.90
27506;DHT22;14939;43.596;1.320;2023-12-20T05:48:49;9.00;99.90
27506;DHT22;14939;43.596;1.320;2023-12-20T05:51:15;9.00;99.90
27506;DHT22;14939;43.596;1.320;2023-12-20T05:53:41;9.00;99.90
27506;DHT22;14939;43.596;1.320;2023-12-20T05:56:06;9.00;99.90
27506;DHT22;14939;43.596;1.320;2023-12-20T05:58:33;9.10;99.90
27506;DHT22;14939;43.596;1.320;2023-12-20T06:00:59;9.10;99.90
27506;DHT22;14939;43.596;1.320;2023-12-20T06:03:25;9.10;99.90
27506;DHT22;14939;43.596;1.320;2023-12-20T06:05:50;9.10;99.90
27506;DHT22;14939;43.596;1.320;2023-12-20T06:08:16;9.10;99.90
27506;DHT22;14939;43.596;1.320;2023-12-20T06:10:41;9.20;99.90
27506;DHT22;14939;43.596;1.320;2023-12-20T06:13:07;9.10;99.90
27506;DHT22;14939;43.596;1.320;2023-12-20T06:15:33;9.10;99.90
27506;DHT22;14939;43.596;1.320;2023-12-20T06:17:58;9.10;99.90
27506;DHT22;14939;43.596;1.320;2023-12-20T06:20:24;9.10;99.90
27506;DHT22;14939;43.596;1.320;2023-12-20T06:22:50;9.10;99.90
27506;DHT22;14939;43.596;1.320;2023-12-20T06:25:16;9.10;99.90
27506;DHT22;14939;43.596;1.320;2023-12-20T06:27:42;9.10;99.90
27506;DHT22;14939;43.596;1.320;2023-12-20T06:30:08;9.10;99.90
27506;DHT22;14939;43.596;1.320;2023-12-20T06:32:36;9.20;99.90
27506;DHT22;14939;43.596;1.320;2023-12-20T06:35:04;9.30;99.90
27506;DHT22;14939;43.596;1.320;2023-12-20T06:37:30;9.30;99.90
27506;DHT22;14939;43.596;1.320;2023-12-20T06:39:56;9.40;99.90
27506;DHT22;14939;43.596;1.320;2023-12-20T06:42:22;9.40;99.90
27506;DHT22;14939;43.596;1.320;2023-12-20T06:44:48;9.50;99.90
27506;DHT22;14939;43.596;1.320;2023-12-20T06:47:14;9.60;99.90
27506;DHT22;14939;43.596;1.320;2023-12-20T06:49:40;9.60;99.90
27506;DHT22;14939;43.596;1.320;2023-12-20T06:52:06;9.70;99.90
27506;DHT22;14939;43.596;1.320;2023-12-20T06:54:32;9.70;99.90
27506;DHT22;14939;43.596;1.320;2023-12-20T06:56:59;9.70;99.90
27506;DHT22;14939;43.596;1.320;2023-12-20T06:59:25;9.80;99.90
27506;DHT22;14939;43.596;1.320;2023-12-20T07:01:51;9.80;99.90
27506;DHT22;14939;43.596;1.320;2023-12-20T07:04:17;9.80;99.90
27506;DHT22;14939;43.596;1.320;2023-12-20T07:06:47;9.80;99.90
27506;DHT22;14939;43.596;1.320;2023-12-20T07:09:13;9.80;99.90
27506;DHT22;14939;43.596;1.320;2023-12-20T07:11:39;9.80;99.90
27506;DHT22;14939;43.596;1.320;2023-12-20T07:14:05;9.80;99.90
27506;DHT22;14939;43.596;1.320;2023-12-20T07:16:31;9.80;99.90
27506;DHT22;14939;43.596;1.320;2023-12-20T07:18:57;9.70;99.90
27506;DHT22;14939;43.596;1.320;2023-12-20T07:21:23;9.70;99.90
27506;DHT22;14939;43.596;1.320;2023-12-20T07:23:48;9.70;99.90
27506;DHT22;14939;43.596;1.320;2023-12-20T07:26:15;9.60;99.90
27506;DHT22;14939;43.596;1.320;2023-12-20T07:28:41;9.60;99.90
27506;DHT22;14939;43.596;1.320;2023-12-20T07:31:06;9.50;99.90
27506;DHT22;14939;43.596;1.320;2023-12-20T07:33:32;9.50;99.90
27506;DHT22;14939;43.596;1.320;2023-12-20T07:35:59;9.50;99.90
27506;DHT22;14939;43.596;1.320;2023-12-20T07:38:25;9.40;99.90
27506;DHT22;14939;43.596;1.320;2023-12-20T07:40:50;9.40;99.90
27506;DHT22;14939;43.596;1.320;2023-12-20T07:43:16;9.40;99.90
27506;DHT22;14939;43.596;1.320;2023-12-20T07:45:42;9.40;99.90
27506;DHT22;14939;43.596;1.320;2023-12-20T07:48:07;9.40;99.90
27506;DHT22;14939;43.596;1.320;2023-12-20T07:50:34;9.30;99.90
27506;DHT22;14939;43.596;1.320;2023-12-20T07:52:59;9.30;99.90
27506;DHT22;14939;43.596;1.320;2023-12-20T07:55:26;9.30;99.90
27506;DHT22;14939;43.596;1.320;2023-12-20T07:57:52;9.30;99.90
27506;DHT22;14939;43.596;1.320;2023-12-20T08:00:18;9.30;99.90
27506;DHT22;14939;43.596;1.320;2023-12-20T08:02:44;9.30;99.90
27506;DHT22;14939;43.596;1.320;2023-12-20T08:05:10;9.30;99.90
27506;DHT22;14939;43.596;1.320;2023-12-20T08:07:36;9.20;99.90
27506;DHT22;14939;43.596;1.320;2023-12-20T08:10:01;9.30;99.90
27506;DHT22;14939;43.596;1.320;2023-12-20T08:12:27;9.20;99.90
27506;DHT22;14939;43.596;1.320;2023-12-20T08:14:53;9.30;99.90
27506;DHT22;14939;43.596;1.320;2023-12-20T08:17:19;9.20;99.90
27506;DHT22;14939;43.596;1.320;2023-12-20T08:19:45;9.20;99.90
27506;DHT22;14939;43.596;1.320;2023-12-20T08:22:11;9.10;99.90
27506;DHT22;14939;43.596;1.320;2023-12-20T08:24:37;9.10;99.90
27506;DHT22;14939;43.596;1.320;2023-12-20T08:27:04;9.10;99.90
27506;DHT22;14939;43.596;1.320;2023-12-20T08:29:29;9.10;99.90
27506;DHT22;14939;43.596;1.320;2023-12-20T08:31:56;9.10;99.90
27506;DHT22;14939;43.596;1.320;2023-12-20T08:34:22;9.10;99.90
27506;DHT22;14939;43.596;1.320;2023-12-20T08:36:50;9.10;99.90
27506;DHT22;14939;43.596;1.320;2023-12-20T08:39:16;9.10;99.90
27506;DHT22;14939;43.596;1.320;2023-12-20T08:41:42;9.10;99.90
27506;DHT22;14939;43.596;1.320;2023-12-20T08:44:08;9.10;99.90
27506;DHT22;14939;43.596;1.320;2023-12-20T08:46:34;9.20;99.90
27506;DHT22;14939;43.596;1.320;2023-12-20T08:49:01;9.20;99.90
27506;DHT22;14939;43.596;1.320;2023-12-20T08:51:26;9.20;99.90
27506;DHT22;14939;43.596;1.320;2023-12-20T08:53:53;9.20;99.90
27506;DHT22;14939;43.596;1.320;2023-12-20T08:56:19;9.20;99.90
27506;DHT22;14939;43.596;1.320;2023-12-20T08:58:45;9.20;99.90
27506;DHT22;14939;43.596;1.320;2023-12-20T09:01:11;9.30;99.90
27506;DHT22;14939;43.596;1.320;2023-12-20T09:03:37;9.20;99.90
27506;DHT22;14939;43.596;1.320;2023-12-20T09:06:03;9.20;99.90
27506;DHT22;14939;43.596;1.320;2023-12-20T09:08:28;9.20;99.90
27506;DHT22;14939;43.596;1.320;2023-12-20T09:10:54;9.20;99.90
27506;DHT22;14939;43.596;1.320;2023-12-20T09:13:20;9.20;99.90
27506;DHT22;14939;43.596;1.320;2023-12-20T09:15:47;9.30;99.90
27506;DHT22;14939;43.596;1.320;2023-12-20T09:18:13;9.40;99.90
27506;DHT22;14939;43.596;1.320;2023-12-20T09:20:38;9.40;99.90
27506;DHT22;14939;43.596;1.320;2023-12-20T09:23:04;9.40;99.90
27506;DHT22;14939;43.596;1.320;2023-12-20T09:25:29;9.30;99.90
27506;DHT22;14939;43.596;1.320;2023-12-20T09:27:55;9.30;99.90
27506;DHT22;14939;43.596;1.320;2023-12-20T09:30:21;9.30;99.90
27506;DHT22;14939;43.596;1.320;2023-12-20T09:32:46;9.30;99.90
27506;DHT22;14939;43.596;1.320;2023-12-20T09:35:12;9.20;99.90
27506;DHT22;14939;43.596;1.320;2023-12-20T09:37:38;9.20;99.90
27506;DHT22;14939;43.596;1.320;2023-12-20T09:40:04;9.20;99.90
27506;DHT22;14939;43.596;1.320;2023-12-20T09:42:56;9.20;99.90
27506;DHT22;14939;43.596;1.320;2023-12-20T09:45:23;9.20;99.90
27506;DHT22;14939;43.596;1.320;2023-12-20T09:47:50;9.20;99.90
27506;DHT22;14939;43.596;1.320;2023-12-20T09:50:19;9.30;99.90
27506;DHT22;14939;43.596;1.320;2023-12-20T09:52:49;9.30;99.90
27506;DHT22;14939;43.596;1.320;2023-12-20T09:55:17;9.30;99.90
27506;DHT22;14939;43.596;1.320;2023-12-20T09:57:43;9.40;99.90
27506;DHT22;14939;43.596;1.320;2023-12-20T10:00:09;9.40;99.90
27506;DHT22;14939;43.596;1.320;2023-12-20T10:02:36;9.40;99.90
27506;DHT22;14939;43.596;1.320;2023-12-20T10:05:06;9.40;99.90
27506;DHT22;14939;43.596;1.320;2023-12-20T10:07:35;9.40;99.90
27506;DHT22;14939;43.596;1.320;2023-12-20T10:10:02;9.50;99.90
27506;DHT22;14939;43.596;1.320;2023-12-20T10:12:27;9.50;99.90
27506;DHT22;14939;43.596;1.320;2023-12-20T10:14:53;9.60;99.90
27506;DHT22;14939;43.596;1.320;2023-12-20T10:17:19;9.60;99.90
27506;DHT22;14939;43.596;1.320;2023-12-20T10:19:46;9.60;99.90
27506;DHT22;14939;43.596;1.320;2023-12-20T10:22:12;9.70;99.90
27506;DHT22;14939;43.596;1.320;2023-12-20T10:24:38;9.60;99.90
27506;DHT22;14939;43.596;1.320;2023-12-20T10:27:06;9.60;99.90
27506;DHT22;14939;43.596;1.320;2023-12-20T10:29:41;9.60;99.90
27506;DHT22;14939;43.596;1.320;2023-12-20T10:32:26;9.70;99.90
27506;DHT22;14939;43.596;1.320;2023-12-20T10:34:53;9.60;99.90
27506;DHT22;14939;43.596;1.320;2023-12-20T10:37:19;9.60;99.90
27506;DHT22;14939;43.596;1.320;2023-12-20T10:39:50;9.60;99.90
27506;DHT22;14939;43.596;1.320;2023-12-20T10:42:17;9.60;99.90
27506;DHT22;14939;43.596;1.320;2023-12-20T10:44:43;9.50;99.90
27506;DHT22;14939;43.596;1.320;2023-12-20T10:47:09;9.60;99.90
27506;DHT22;14939;43.596;1.320;2023-12-20T10:49:37;9.70;99.90
27506;DHT22;14939;43.596;1.320;2023-12-20T10:52:05;9.70;99.90
27506;DHT22;14939;43.596;1.320;2023-12-20T10:54:32;9.60;99.90
27506;DHT22;14939;43.596;1.320;2023-12-20T10:56:58;9.70;99.90
27506;DHT22;14939;43.596;1.320;2023-12-20T10:59:26;9.70;99.90
27506;DHT22;14939;43.596;1.320;2023-12-20T11:01:54;9.70;99.90
27506;DHT22;14939;43.596;1.320;2023-12-20T11:05:25;9.50;99.90
27506;DHT22;14939;43.596;1.320;2023-12-20T11:07:25;9.50;99.90
27506;DHT22;14939;43.596;1.320;2023-12-20T11:10:00;9.40;99.90
27506;DHT22;14939;43.596;1.320;2023-12-20T11:12:38;9.30;99.90
27506;DHT22;14939;43.596;1.320;2023-12-20T11:15:07;9.20;99.90
27506;DHT22;14939;43.596;1.320;2023-12-20T11:17:33;9.30;99.90
27506;DHT22;14939;43.596;1.320;2023-12-20T11:22:30;9.50;99.90
27506;DHT22;14939;43.596;1.320;2023-12-20T11:25:09;9.30;99.90
27506;DHT22;14939;43.596;1.320;2023-12-20T11:27:37;9.30;99.90
27506;DHT22;14939;43.596;1.320;2023-12-20T11:30:05;9.10;99.90
27506;DHT22;14939;43.596;1.320;2023-12-20T11:32:34;9.20;99.90
27506;DHT22;14939;43.596;1.320;2023-12-20T11:35:20;9.30;99.90
27506;DHT22;14939;43.596;1.320;2023-12-20T11:37:46;9.10;99.90
27506;DHT22;14939;43.596;1.320;2023-12-20T11:40:16;9.30;99.90
27506;DHT22;14939;43.596;1.320;2023-12-20T11:42:50;9.30;99.90
27506;DHT22;14939;43.596;1.320;2023-12-20T11:45:18;9.20;99.90
27506;DHT22;14939;43.596;1.320;2023-12-20T11:47:49;9.40;99.90
27506;DHT22;14939;43.596;1.320;2023-12-20T11:50:19;9.50;99.90
27506;DHT22;14939;43.596;1.320;2023-12-20T11:52:45;9.50;99.90
27506;DHT22;14939;43.596;1.320;2023-12-20T11:55:11;9.30;99.90
27506;DHT22;14939;43.596;1.320;2023-12-20T11:57:37;8.90;99.90
27506;DHT22;14939;43.596;1.320;2023-12-20T12:00:03;8.80;99.90
27506;DHT22;14939;43.596;1.320;2023-12-20T12:02:30;8.90;99.90
27506;DHT22;14939;43.596;1.320;2023-12-20T12:04:55;8.70;99.90
27506;DHT22;14939;43.596;1.320;2023-12-20T12:07:22;8.20;99.90
27506;DHT22;14939;43.596;1.320;2023-12-20T12:09:48;8.20;99.90
27506;DHT22;14939;43.596;1.320;2023-12-20T12:12:14;8.20;99.90
27506;DHT22;14939;43.596;1.320;2023-12-20T12:14:40;8.20;99.90
27506;DHT22;14939;43.596;1.320;2023-12-20T12:17:12;8.40;99.90
27506;DHT22;14939;43.596;1.320;2023-12-20T12:19:39;8.60;99.90
27506;DHT22;14939;43.596;1.320;2023-12-20T12:24:41;8.70;99.90
27506;DHT22;14939;43.596;1.320;2023-12-20T12:27:07;9.00;99.90
27506;DHT22;14939;43.596;1.320;2023-12-20T12:29:33;9.20;99.90
27506;DHT22;14939;43.596;1.320;2023-12-20T12:32:00;9.60;99.90
27506;DHT22;14939;43.596;1.320;2023-12-20T12:34:27;9.90;99.90
27506;DHT22;14939;43.596;1.320;2023-12-20T12:36:53;10.30;99.90
27506;DHT22;14939;43.596;1.320;2023-12-20T12:39:20;10.30;99.90
27506;DHT22;14939;43.596;1.320;2023-12-20T12:41:45;10.20;99.90
27506;DHT22;14939;43.596;1.320;2023-12-20T12:44:11;10.00;99.90
27506;DHT22;14939;43.596;1.320;2023-12-20T12:46:37;9.50;99.90
27506;DHT22;14939;43.596;1.320;2023-12-20T12:49:02;9.10;99.90
27506;DHT22;14939;43.596;1.320;2023-12-20T12:51:28;9.20;99.90
27506;DHT22;14939;43.596;1.320;2023-12-20T12:53:54;9.60;99.90
27506;DHT22;14939;43.596;1.320;2023-12-20T12:56:19;9.90;99.90
27506;DHT22;14939;43.596;1.320;2023-12-20T12:58:45;10.10;99.90
27506;DHT22;14939;43.596;1.320;2023-12-20T13:01:11;10.30;99.90
27506;DHT22;14939;43.596;1.320;2023-12-20T13:03:37;10.00;99.90
27506;DHT22;14939;43.596;1.320;2023-12-20T13:06:03;9.50;99.90
27506;DHT22;14939;43.596;1.320;2023-12-20T13:08:29;9.20;99.90
27506;DHT22;14939;43.596;1.320;2023-12-20T13:10:55;9.10;99.90
27506;DHT22;14939;43.596;1.320;2023-12-20T13:13:21;9.00;99.90
27506;DHT22;14939;43.596;1.320;2023-12-20T13:15:46;9.20;99.90
27506;DHT22;14939;43.596;1.320;2023-12-20T13:18:17;9.00;99.90
27506;DHT22;14939;43.596;1.320;2023-12-20T13:20:44;9.00;99.90
27506;DHT22;14939;43.596;1.320;2023-12-20T13:23:09;9.00;99.90
27506;DHT22;14939;43.596;1.320;2023-12-20T13:25:35;8.80;99.90
27506;DHT22;14939;43.596;1.320;2023-12-20T13:28:01;8.80;99.90
27506;DHT22;14939;43.596;1.320;2023-12-20T13:30:28;9.00;99.90
27506;DHT22;14939;43.596;1.320;2023-12-20T13:32:53;9.40;99.90
27506;DHT22;14939;43.596;1.320;2023-12-20T13:35:19;9.60;99.90
27506;DHT22;14939;43.596;1.320;2023-12-20T13:37:46;9.60;99.90
27506;DHT22;14939;43.596;1.320;2023-12-20T13:40:11;9.60;99.90
27506;DHT22;14939;43.596;1.320;2023-12-20T13:42:40;9.50;99.90
27506;DHT22;14939;43.596;1.320;2023-12-20T13:45:07;9.50;99.90
27506;DHT22;14939;43.596;1.320;2023-12-20T13:47:32;9.30;99.90
27506;DHT22;14939;43.596;1.320;2023-12-20T13:49:58;9.20;99.90
27506;DHT22;14939;43.596;1.320;2023-12-20T13:52:24;9.20;99.90
27506;DHT22;14939;43.596;1.320;2023-12-20T13:54:50;9.30;99.90
27506;DHT22;14939;43.596;1.320;2023-12-20T13:57:15;9.20;99.90
27506;DHT22;14939;43.596;1.320;2023-12-20T13:59:41;9.30;99.90
27506;DHT22;14939;43.596;1.320;2023-12-20T14:02:07;9.30;99.90
27506;DHT22;14939;43.596;1.320;2023-12-20T14:04:32;9.30;99.90
27506;DHT22;14939;43.596;1.320;2023-12-20T14:06:58;9.40;99.90
27506;DHT22;14939;43.596;1.320;2023-12-20T14:09:24;9.40;99.90
27506;DHT22;14939;43.596;1.320;2023-12-20T14:11:50;9.50;99.90
27506;DHT22;14939;43.596;1.320;2023-12-20T14:14:15;9.60;99.90
27506;DHT22;14939;43.596;1.320;2023-12-20T14:16:41;9.50;99.90
27506;DHT22;14939;43.596;1.320;2023-12-20T14:19:10;9.30;99.90
27506;DHT22;14939;43.596;1.320;2023-12-20T14:21:36;9.20;99.90
27506;DHT22;14939;43.596;1.320;2023-12-20T14:24:02;9.10;99.90
27506;DHT22;14939;43.596;1.320;2023-12-20T14:26:29;9.00;99.90
27506;DHT22;14939;43.596;1.320;2023-12-20T14:28:55;9.00;99.90
27506;DHT22;14939;43.596;1.320;2023-12-20T14:31:20;8.90;99.90
27506;DHT22;14939;43.596;1.320;2023-12-20T14:33:48;8.90;99.90
27506;DHT22;14939;43.596;1.320;2023-12-20T14:36:16;8.90;99.90
27506;DHT22;14939;43.596;1.320;2023-12-20T14:38:43;8.90;99.90
27506;DHT22;14939;43.596;1.320;2023-12-20T14:41:09;8.90;99.90
27506;DHT22;14939;43.596;1.320;2023-12-20T14:43:35;9.00;99.90
27506;DHT22;14939;43.596;1.320;2023-12-20T14:46:01;9.00;99.90
27506;DHT22;14939;43.596;1.320;2023-12-20T14:48:26;9.00;99.90
27506;DHT22;14939;43.596;1.320;2023-12-20T14:50:55;8.90;99.90
27506;DHT22;14939;43.596;1.320;2023-12-20T14:53:21;8.90;99.90
27506;DHT22;14939;43.596;1.320;2023-12-20T14:55:46;8.80;99.90
27506;DHT22;14939;43.596;1.320;2023-12-20T14:58:12;8.80;99.90
27506;DHT22;14939;43.596;1.320;2023-12-20T15:00:38;8.80;99.90
27506;DHT22;14939;43.596;1.320;2023-12-20T15:03:04;8.80;99.90
27506;DHT22;14939;43.596;1.320;2023-12-20T15:05:30;8.80;99.90
27506;DHT22;14939;43.596;1.320;2023-12-20T15:07:56;8.80;99.90
27506;DHT22;14939;43.596;1.320;2023-12-20T15:10:22;8.80;99.90
27506;DHT22;14939;43.596;1.320;2023-12-20T15:12:47;8.80;99.90
27506;DHT22;14939;43.596;1.320;2023-12-20T15:15:13;8.80;99.90
27506;DHT22;14939;43.596;1.320;2023-12-20T15:17:40;8.80;99.90
27506;DHT22;14939;43.596;1.320;2023-12-20T15:20:06;8.80;99.90
27506;DHT22;14939;43.596;1.320;2023-12-20T15:22:31;8.80;99.90
27506;DHT22;14939;43.596;1.320;2023-12-20T15:24:59;8.70;99.90
27506;DHT22;14939;43.596;1.320;2023-12-20T15:27:26;8.70;99.90
27506;DHT22;14939;43.596;1.320;2023-12-20T15:29:52;8.70;99.90
27506;DHT22;14939;43.596;1.320;2023-12-20T15:32:18;8.70;99.90
27506;DHT22;14939;43.596;1.320;2023-12-20T15:34:46;8.70;99.90
27506;DHT22;14939;43.596;1.320;2023-12-20T15:37:12;8.70;99.90
27506;DHT22;14939;43.596;1.320;2023-12-20T15:39:37;8.70;99.90
27506;DHT22;14939;43.596;1.320;2023-12-20T15:42:03;8.60;99.90
27506;DHT22;14939;43.596;1.320;2023-12-20T15:44:29;8.60;99.90